EFET

Enontekio Airport

Enontekio, Finland
METAR EFET 181920Z AUTO 22002KT 8000 OVC002 M28/M30 Q1012
Observed Flight Rules
Dec-18 @ 19:20 UTC (48 minutes ago) Instrument Flight Rules
Wind Visibility Clouds
220° at 2 knots 7,998 meters
  • Overcast at 200' AGL
Temperatures Readings
Current -28°C / -18°F
Dewpoint -30°C / -22°F
Humidity 83%
Altimeter 29.88" Hg
Pressure 1012 hPa
Elevation 306
METAR EFET 181920Z AUTO 22002KT 8000 OVC002 M28/M30 Q1012
Observed Flight Rules
Dec-18 @ 19:20 UTC
(48 minutes ago)
LIFR
Wind Visibility
220° at 2 knots 7,998 meters
Clouds
  • Overcast at 200' AGL
Temperature Dewpoint
-28°C / -18°F -30°C / -22°F
Humidity Altimeter Pressure
83% 29.88" Hg 1012 hPa